createdAt,value
2023-01-26T00:01:29.368Z,101249.31
2023-01-26T00:03:57.983Z,101204.53
2023-01-26T00:06:26.804Z,101247.50
2023-01-26T00:08:56.781Z,101245.72
2023-01-26T00:11:26.968Z,101249.22
2023-01-26T00:13:55.318Z,101225.03
2023-01-26T00:16:25.220Z,101251.72
2023-01-26T00:18:54.011Z,101241.34
2023-01-26T00:21:23.488Z,101243.13
2023-01-26T00:23:52.446Z,101236.78
2023-01-26T00:26:22.869Z,101258.63
2023-01-26T00:28:51.043Z,101245.28
2023-01-26T00:31:21.468Z,101260.22
2023-01-26T00:33:51.902Z,101246.78
2023-01-26T00:36:20.430Z,101260.13
2023-01-26T00:38:48.471Z,101254.03
2023-01-26T00:41:30.299Z,101242.84
2023-01-26T00:43:58.320Z,101251.44
2023-01-26T00:46:26.181Z,101257.53
2023-01-26T00:48:55.450Z,101260.84
2023-01-26T00:51:24.043Z,101248.84
2023-01-26T00:53:51.888Z,101253.78
2023-01-26T00:56:19.754Z,101256.38
2023-01-26T00:58:48.021Z,101259.78
2023-01-26T01:01:15.891Z,101241.59
2023-01-26T01:03:43.855Z,101260.56
2023-01-26T01:06:13.260Z,101253.69
2023-01-26T01:08:41.078Z,101254.47
2023-01-26T01:11:10.797Z,101207.03
2023-01-26T01:13:39.798Z,101253.78
2023-01-26T01:16:08.346Z,101262.47
2023-01-26T01:18:36.443Z,101269.53
2023-01-26T01:21:07.939Z,101252.69
2023-01-26T01:23:37.181Z,101246.78
2023-01-26T01:26:06.200Z,101217.31
2023-01-26T01:28:34.924Z,101261.91
2023-01-26T01:31:05.636Z,101260.13
2023-01-26T01:33:33.681Z,101259.31
2023-01-26T01:36:03.600Z,101247.59
2023-01-26T01:38:31.892Z,101255.38
2023-01-26T01:41:01.153Z,101275.19
2023-01-26T01:43:29.958Z,101273.38
2023-01-26T01:45:59.813Z,101249.81
2023-01-26T01:48:32.668Z,101272.94
2023-01-26T01:51:06.801Z,101275.44
2023-01-26T01:53:38.856Z,101277.13
2023-01-26T01:56:12.408Z,101280.63
2023-01-26T01:58:44.283Z,101263.69
2023-01-26T02:01:13.199Z,101284.13
2023-01-26T02:03:43.250Z,101279.47
2023-01-26T02:06:14.896Z,101301.41
2023-01-26T02:08:47.263Z,101240.75
2023-01-26T02:11:20.362Z,101279.56
2023-01-26T02:13:50.192Z,101278.84
2023-01-26T02:16:19.038Z,101226.00
2023-01-26T02:18:47.656Z,101275.72
2023-01-26T02:21:18.872Z,101279.38
2023-01-26T02:24:03.197Z,101270.59
2023-01-26T02:26:35.068Z,101265.94
2023-01-26T02:29:05.949Z,101270.34
2023-01-26T02:31:34.047Z,101267.75
2023-01-26T02:34:01.869Z,101270.34
2023-01-26T02:36:32.606Z,101278.94
2023-01-26T02:39:17.190Z,101215.16
2023-01-26T02:42:05.052Z,101206.38
2023-01-26T02:44:34.049Z,101271.94
2023-01-26T02:47:01.867Z,101277.22
2023-01-26T02:49:47.452Z,101279.72
2023-01-26T02:52:16.285Z,101270.97
2023-01-26T02:55:01.792Z,101279.56
2023-01-26T02:57:31.172Z,101279.56
2023-01-26T02:59:59.107Z,101287.44
2023-01-26T03:02:27.130Z,101288.25
2023-01-26T03:04:55.041Z,101281.34
2023-01-26T03:07:23.021Z,101277.13
2023-01-26T03:09:50.979Z,101277.03
2023-01-26T03:12:18.788Z,101279.03
2023-01-26T03:15:08.207Z,101290.41
2023-01-26T03:17:36.064Z,101296.47
2023-01-26T03:20:22.960Z,101260.31
2023-01-26T03:23:08.128Z,101280.09
2023-01-26T03:25:55.033Z,101281.00
2023-01-26T03:28:23.348Z,101283.69
2023-01-26T03:30:54.501Z,101287.09
2023-01-26T03:33:23.038Z,101289.94
2023-01-26T03:35:54.618Z,101287.44
2023-01-26T03:38:22.669Z,101286.47
2023-01-26T03:41:08.070Z,101300.72
2023-01-26T03:43:53.500Z,101298.19
2023-01-26T03:46:39.967Z,101313.78
2023-01-26T03:49:25.351Z,101301.78
2023-01-26T03:52:10.887Z,101303.56
2023-01-26T03:54:56.482Z,101257.19
2023-01-26T03:57:24.394Z,101289.25
2023-01-26T03:59:52.293Z,101300.25
2023-01-26T04:02:39.418Z,101260.94
2023-01-26T04:05:25.120Z,101299.63
2023-01-26T04:08:10.654Z,101308.50
2023-01-26T04:10:38.459Z,101297.31
2023-01-26T04:13:24.250Z,101310.38
2023-01-26T04:16:09.809Z,101321.75
2023-01-26T04:18:56.697Z,101305.72
2023-01-26T04:21:32.352Z,101292.47
2023-01-26T04:24:01.775Z,101313.06
2023-01-26T04:26:34.880Z,101289.97
2023-01-26T04:29:03.598Z,101313.06
2023-01-26T04:31:31.697Z,101317.38
2023-01-26T04:34:01.393Z,101302.41
2023-01-26T04:36:29.489Z,101317.56
2023-01-26T04:38:57.684Z,101273.66
2023-01-26T04:41:25.505Z,101310.75
2023-01-26T04:43:53.635Z,101309.84
2023-01-26T04:46:21.803Z,101190.75
2023-01-26T04:48:49.761Z,101285.56
2023-01-26T04:51:22.340Z,101295.78
2023-01-26T04:53:51.271Z,101314.50
2023-01-26T04:56:23.398Z,101318.91
2023-01-26T04:58:51.384Z,101331.09
2023-01-26T05:01:19.514Z,101337.09
2023-01-26T05:03:48.283Z,101311.72
2023-01-26T05:06:16.591Z,101341.38
2023-01-26T05:08:45.897Z,101338.69
2023-01-26T05:11:13.871Z,101348.38
2023-01-26T05:13:41.830Z,101349.28
2023-01-26T05:16:13.925Z,101345.78
2023-01-26T05:18:42.255Z,101355.38
2023-01-26T05:21:11.756Z,101358.84
2023-01-26T05:23:40.517Z,101358.94
2023-01-26T05:26:10.108Z,101354.28
2023-01-26T05:28:38.494Z,101363.44
2023-01-26T05:31:06.655Z,101288.16
2023-01-26T05:33:34.727Z,101374.81
2023-01-26T05:36:06.562Z,101356.00
2023-01-26T05:38:34.767Z,101376.50
2023-01-26T05:41:03.927Z,101359.41
2023-01-26T05:43:33.101Z,101380.81
2023-01-26T05:46:01.002Z,101393.00
2023-01-26T05:48:28.996Z,101392.09
2023-01-26T05:50:58.205Z,101353.09
2023-01-26T05:53:26.211Z,101404.19
2023-01-26T05:55:54.398Z,101354.72
2023-01-26T05:58:22.210Z,101406.81
2023-01-26T06:00:51.424Z,101412.97
2023-01-26T06:03:19.511Z,101394.97
2023-01-26T06:05:54.046Z,101427.59
2023-01-26T06:08:22.200Z,101427.69
2023-01-26T06:10:50.074Z,101433.78
2023-01-26T06:13:17.912Z,101429.38
2023-01-26T06:15:45.906Z,101433.78
2023-01-26T06:18:15.149Z,101437.28
2023-01-26T06:20:44.342Z,101408.81
2023-01-26T06:23:12.955Z,101451.97
2023-01-26T06:25:40.772Z,101453.66
2023-01-26T06:28:08.751Z,101458.06
2023-01-26T06:30:37.038Z,101456.34
2023-01-26T06:33:06.934Z,101462.44
2023-01-26T06:35:37.315Z,101466.66
2023-01-26T06:38:05.233Z,101469.25
2023-01-26T06:40:33.094Z,101469.06
2023-01-26T06:43:00.979Z,101426.19
2023-01-26T06:45:29.098Z,101475.44
2023-01-26T06:47:56.924Z,101443.94
2023-01-26T06:50:32.847Z,101476.16
2023-01-26T06:53:05.148Z,101438.56
2023-01-26T06:55:37.544Z,101480.56
2023-01-26T06:58:05.439Z,101489.34
2023-01-26T07:00:33.454Z,101512.00
2023-01-26T07:03:01.344Z,101513.63
2023-01-26T07:05:29.227Z,101511.53
2023-01-26T07:07:56.978Z,101517.91
2023-01-26T07:10:26.282Z,101518.72
2023-01-26T07:12:54.250Z,101354.34
2023-01-26T07:15:22.034Z,101529.13
2023-01-26T07:17:49.952Z,101511.06
2023-01-26T07:20:18.093Z,101528.66
2023-01-26T07:22:45.901Z,101531.44
2023-01-26T07:25:14.110Z,101463.75
2023-01-26T07:27:43.380Z,101530.78
2023-01-26T07:30:14.679Z,101559.03
2023-01-26T07:32:42.690Z,101563.22
2023-01-26T07:35:10.752Z,101563.03
2023-01-26T07:37:38.625Z,101576.84
2023-01-26T07:40:07.698Z,101539.13
2023-01-26T07:42:35.577Z,101570.75
2023-01-26T07:45:05.357Z,101549.59
2023-01-26T07:47:33.298Z,101579.03
2023-01-26T07:50:01.138Z,101577.16
2023-01-26T07:52:29.004Z,101589.16
2023-01-26T07:54:56.888Z,101600.25
2023-01-26T07:57:24.716Z,101599.16
2023-01-26T07:59:52.521Z,101602.44
2023-01-26T08:02:22.044Z,101501.34
2023-01-26T08:04:50.288Z,101612.53
2023-01-26T08:07:18.431Z,101611.44
2023-01-26T08:09:46.979Z,101620.84
2023-01-26T08:12:14.802Z,101580.31
2023-01-26T08:14:47.053Z,101622.25
2023-01-26T08:17:17.585Z,101627.34
2023-01-26T08:19:47.663Z,101591.88
2023-01-26T08:22:15.810Z,101625.44
2023-01-26T08:24:43.771Z,101520.09
2023-01-26T08:27:11.664Z,101629.22
2023-01-26T08:29:39.668Z,101625.22
2023-01-26T08:32:08.344Z,101659.09
2023-01-26T08:34:36.448Z,101664.06
2023-01-26T08:37:05.800Z,101671.75
2023-01-26T08:39:33.800Z,101681.03
2023-01-26T08:42:01.647Z,101643.97
2023-01-26T08:44:29.535Z,101680.03
2023-01-26T08:46:57.444Z,101686.81
2023-01-26T08:49:25.347Z,101670.53
2023-01-26T08:51:53.388Z,101681.63
2023-01-26T08:54:22.752Z,101698.91
2023-01-26T08:56:50.656Z,101698.09
2023-01-26T08:59:18.841Z,101698.91
2023-01-26T09:01:46.854Z,101710.19
2023-01-26T09:04:14.772Z,101632.63
2023-01-26T09:06:42.776Z,101714.47
2023-01-26T09:09:13.409Z,101712.88
2023-01-26T09:11:42.856Z,101720.56
2023-01-26T09:14:10.700Z,101728.25
2023-01-26T09:16:38.611Z,101723.25
2023-01-26T09:19:06.600Z,101727.06
2023-01-26T09:21:34.566Z,101730.88
2023-01-26T09:24:02.761Z,101728.38
2023-01-26T09:26:31.206Z,101734.69
2023-01-26T09:29:00.417Z,101740.06
2023-01-26T09:31:28.431Z,101738.59
2023-01-26T09:33:56.450Z,101725.19
2023-01-26T09:36:24.283Z,101722.00
2023-01-26T09:38:54.158Z,101745.09
2023-01-26T09:41:39.556Z,101691.22
2023-01-26T09:44:11.913Z,101749.09
2023-01-26T09:46:50.457Z,101762.28
2023-01-26T09:49:25.242Z,101759.00
2023-01-26T09:52:00.921Z,101756.69
2023-01-26T09:54:36.880Z,101759.41
2023-01-26T09:57:13.643Z,101758.81
2023-01-26T09:59:48.956Z,101745.63
2023-01-26T10:02:27.190Z,101772.59
2023-01-26T10:04:59.655Z,101775.50
2023-01-26T10:07:27.817Z,101772.31
2023-01-26T10:09:56.593Z,101778.94
2023-01-26T10:12:27.010Z,101792.69
2023-01-26T10:15:02.617Z,101796.97
2023-01-26T10:17:34.766Z,101737.56
2023-01-26T10:20:07.447Z,101800.81
2023-01-26T10:22:43.549Z,101802.53
2023-01-26T10:25:18.587Z,101813.84
2023-01-26T10:27:47.612Z,101819.22
2023-01-26T10:30:18.454Z,101810.53
2023-01-26T10:32:49.102Z,101823.16
2023-01-26T10:35:20.552Z,101818.22
2023-01-26T10:37:49.210Z,101782.88
2023-01-26T10:40:18.643Z,101778.22
2023-01-26T10:42:56.759Z,101827.09
2023-01-26T10:45:30.339Z,101833.72
2023-01-26T10:48:07.935Z,101843.28
2023-01-26T10:50:36.171Z,101839.34
2023-01-26T10:53:05.706Z,101810.91
2023-01-26T10:55:36.469Z,101849.88
2023-01-26T10:58:04.491Z,101846.75
2023-01-26T11:00:36.540Z,101828.59
2023-01-26T11:03:16.860Z,101855.16
2023-01-26T11:05:48.095Z,101863.06
2023-01-26T11:08:35.740Z,101818.88
2023-01-26T11:11:04.674Z,101882.59
2023-01-26T11:13:32.509Z,101843.16
2023-01-26T11:16:14.067Z,101889.06
2023-01-26T11:18:46.141Z,101828.88
2023-01-26T11:21:19.393Z,101885.91
2023-01-26T11:24:06.404Z,101886.97
2023-01-26T11:27:04.151Z,101896.72
2023-01-26T11:29:47.255Z,101876.25
2023-01-26T11:32:26.219Z,101895.44
2023-01-26T11:35:06.378Z,101903.00
2023-01-26T11:37:44.290Z,101888.97
2023-01-26T11:40:25.162Z,101895.06
2023-01-26T11:43:08.754Z,101913.75
2023-01-26T11:45:46.355Z,101819.59
2023-01-26T11:48:25.613Z,101918.53
2023-01-26T11:50:58.488Z,101913.22
2023-01-26T11:53:40.003Z,101892.59
2023-01-26T11:56:33.527Z,101924.50
2023-01-26T11:59:05.325Z,101915.13
2023-01-26T12:01:37.541Z,101907.66
2023-01-26T12:04:06.926Z,101920.88
2023-01-26T12:06:39.006Z,101925.38
2023-01-26T12:09:19.076Z,101928.41
2023-01-26T12:11:54.788Z,101930.06
2023-01-26T12:14:28.332Z,101931.13
2023-01-26T12:17:26.498Z,101932.00
2023-01-26T12:20:05.006Z,101934.06
2023-01-26T12:22:36.643Z,101927.09
2023-01-26T12:25:20.552Z,101923.78
2023-01-26T12:27:54.411Z,101930.81
2023-01-26T12:30:38.174Z,101925.41
2023-01-26T12:33:06.322Z,101936.13
2023-01-26T12:36:00.841Z,101931.19
2023-01-26T12:38:41.697Z,101946.72
2023-01-26T12:41:15.462Z,101938.91
2023-01-26T12:43:58.155Z,101828.41
2023-01-26T12:46:29.903Z,101943.41
2023-01-26T12:49:02.924Z,101904.97
2023-01-26T12:51:37.026Z,101945.38
2023-01-26T12:54:13.915Z,101953.84
2023-01-26T12:56:46.491Z,101910.59
2023-01-26T12:59:39.611Z,101958.16
2023-01-26T13:02:21.657Z,101915.84
2023-01-26T13:04:51.453Z,101936.72
2023-01-26T13:07:33.717Z,101983.34
2023-01-26T13:10:29.365Z,101988.81
2023-01-26T13:13:00.630Z,101993.56
2023-01-26T13:15:30.591Z,101994.97
2023-01-26T13:18:01.414Z,102004.09
2023-01-26T13:20:43.599Z,101969.00
2023-01-26T13:23:42.728Z,102005.59
2023-01-26T13:26:22.969Z,102011.59
2023-01-26T13:28:51.131Z,102031.47
2023-01-26T13:31:34.580Z,102033.97
2023-01-26T13:34:09.359Z,102050.56
2023-01-26T13:36:41.025Z,102055.06
2023-01-26T13:39:23.479Z,102048.53
2023-01-26T13:41:52.439Z,102028.78
2023-01-26T13:44:24.799Z,102047.28
2023-01-26T13:46:59.506Z,102030.34
2023-01-26T13:49:37.593Z,102048.84
2023-01-26T13:52:16.312Z,102028.63
2023-01-26T13:54:46.831Z,102052.97
2023-01-26T13:57:22.993Z,102056.00
2023-01-26T13:59:51.905Z,102061.50
2023-01-26T14:02:25.051Z,102066.09
2023-01-26T14:04:55.491Z,102076.91
2023-01-26T14:07:27.393Z,102079.00
2023-01-26T14:10:01.487Z,102082.16
2023-01-26T14:12:35.173Z,102089.56
2023-01-26T14:15:05.767Z,102085.59
2023-01-26T14:17:36.914Z,102084.44
2023-01-26T14:20:22.084Z,102084.25
2023-01-26T14:23:04.726Z,102079.13
2023-01-26T14:25:34.839Z,102103.81
2023-01-26T14:28:02.903Z,102100.19
2023-01-26T14:30:33.565Z,102122.03
2023-01-26T14:33:06.092Z,102099.97
2023-01-26T14:35:34.319Z,102135.03
2023-01-26T14:38:16.233Z,102127.78
2023-01-26T14:40:49.792Z,102110.00
2023-01-26T14:43:18.354Z,102134.81
2023-01-26T14:45:52.961Z,101966.44
2023-01-26T14:48:26.655Z,102156.31
2023-01-26T14:50:54.750Z,102160.22
2023-01-26T14:53:24.792Z,102163.84
2023-01-26T14:55:54.841Z,102105.56
2023-01-26T14:58:26.672Z,102127.28
2023-01-26T15:00:55.354Z,102162.72
2023-01-26T15:03:27.748Z,102167.38
2023-01-26T15:06:08.192Z,102163.50
2023-01-26T15:08:36.579Z,102179.41
2023-01-26T15:11:23.992Z,102177.97
2023-01-26T15:13:55.469Z,102186.00
2023-01-26T15:16:25.186Z,102178.75
2023-01-26T15:19:00.451Z,102180.28
2023-01-26T15:21:33.882Z,102180.81
2023-01-26T15:24:02.132Z,102189.97
2023-01-26T15:26:33.312Z,102184.28
2023-01-26T15:29:04.279Z,102184.81
2023-01-26T15:31:35.386Z,102184.41
2023-01-26T15:34:03.949Z,102197.97
2023-01-26T15:36:48.288Z,102140.66
2023-01-26T15:39:17.482Z,102206.75
2023-01-26T15:41:48.475Z,102206.34
2023-01-26T15:44:18.644Z,102212.16
2023-01-26T15:46:46.989Z,102141.88
2023-01-26T15:49:15.199Z,102213.28
2023-01-26T15:51:43.165Z,102215.34
2023-01-26T15:54:12.193Z,102176.13
2023-01-26T15:56:40.007Z,102216.47
2023-01-26T15:59:09.315Z,102220.47
2023-01-26T16:01:37.264Z,102224.94
2023-01-26T16:04:05.112Z,102212.91
2023-01-26T16:06:34.489Z,102225.94
2023-01-26T16:09:02.459Z,102228.66
2023-01-26T16:11:32.607Z,102224.13
2023-01-26T16:14:03.901Z,102235.09
2023-01-26T16:16:33.863Z,102241.94
2023-01-26T16:19:01.806Z,102192.72
2023-01-26T16:21:33.325Z,102238.19
2023-01-26T16:24:01.667Z,102221.44
2023-01-26T16:26:30.479Z,102246.13
2023-01-26T16:28:58.719Z,102228.50
2023-01-26T16:31:29.996Z,102166.63
2023-01-26T16:34:00.040Z,102249.84
2023-01-26T16:36:28.185Z,102250.34
2023-01-26T16:38:56.257Z,102248.25
2023-01-26T16:41:26.802Z,102249.66
2023-01-26T16:43:56.130Z,102230.47
2023-01-26T16:46:24.540Z,102179.94
2023-01-26T16:48:53.024Z,102239.31
2023-01-26T16:51:30.009Z,102257.47
2023-01-26T16:53:58.500Z,102248.88
2023-01-26T16:56:28.405Z,102264.34
2023-01-26T16:58:56.278Z,102243.22
2023-01-26T17:01:28.490Z,102253.41
2023-01-26T17:03:57.227Z,102279.13
2023-01-26T17:06:26.963Z,102283.25
2023-01-26T17:08:55.052Z,102288.88
2023-01-26T17:11:27.422Z,102232.56
2023-01-26T17:13:57.049Z,102238.19
2023-01-26T17:16:27.036Z,102292.72
2023-01-26T17:18:54.918Z,102290.91
2023-01-26T17:21:23.588Z,102289.22
2023-01-26T17:23:55.402Z,102292.72
2023-01-26T17:26:24.444Z,102290.00
2023-01-26T17:28:55.696Z,102256.66
2023-01-26T17:31:25.791Z,102219.69
2023-01-26T17:33:55.479Z,102245.69
2023-01-26T17:36:23.318Z,102325.09
2023-01-26T17:38:52.661Z,102313.88
2023-01-26T17:41:20.554Z,102306.16
2023-01-26T17:43:49.093Z,102318.94
2023-01-26T17:46:19.544Z,102324.72
2023-01-26T17:48:48.385Z,102300.50
2023-01-26T17:51:18.816Z,102286.88
2023-01-26T17:53:49.683Z,102299.78
2023-01-26T17:56:20.596Z,102323.97
2023-01-26T17:58:50.303Z,102331.72
2023-01-26T18:01:18.996Z,102335.97
2023-01-26T18:03:47.429Z,102335.38
2023-01-26T18:06:15.645Z,102279.75
2023-01-26T18:08:43.695Z,102341.75
2023-01-26T18:11:13.014Z,102338.41
2023-01-26T18:13:42.335Z,102343.13
2023-01-26T18:16:12.006Z,102343.31
2023-01-26T18:18:40.142Z,102344.69
2023-01-26T18:21:12.739Z,102354.06
2023-01-26T18:23:40.634Z,102348.00
2023-01-26T18:26:08.698Z,102353.91
2023-01-26T18:28:36.735Z,102326.25
2023-01-26T18:31:11.597Z,102344.09
2023-01-26T18:33:39.767Z,102355.75
2023-01-26T18:36:11.947Z,102268.50
2023-01-26T18:38:40.057Z,102330.06
2023-01-26T18:41:12.103Z,102358.53
2023-01-26T18:43:40.379Z,102375.78
2023-01-26T18:46:08.572Z,102371.25
2023-01-26T18:48:38.020Z,102378.22
2023-01-26T18:51:06.727Z,102401.25
2023-01-26T18:53:34.817Z,102370.53
2023-01-26T18:56:05.074Z,102390.03
2023-01-26T18:58:33.224Z,102372.03
2023-01-26T19:01:04.268Z,102391.72
2023-01-26T19:03:32.344Z,102285.63
2023-01-26T19:06:04.306Z,102397.63
2023-01-26T19:08:32.518Z,102357.22
2023-01-26T19:11:05.891Z,102343.16
2023-01-26T19:13:34.125Z,102397.94
2023-01-26T19:16:02.115Z,102394.47
2023-01-26T19:18:30.279Z,102395.97
2023-01-26T19:20:58.910Z,102410.38
2023-01-26T19:23:29.008Z,102417.34
2023-01-26T19:25:57.252Z,102336.53
2023-01-26T19:28:25.049Z,102417.34
2023-01-26T19:30:52.943Z,102412.06
2023-01-26T19:33:29.167Z,102368.31
2023-01-26T19:35:57.592Z,102372.09
2023-01-26T19:38:26.322Z,102419.47
2023-01-26T19:40:55.717Z,102424.63
2023-01-26T19:43:23.933Z,102422.66
2023-01-26T19:45:54.019Z,102400.56
2023-01-26T19:48:23.804Z,102429.50
2023-01-26T19:50:59.856Z,102419.34
2023-01-26T19:53:28.294Z,102419.34
2023-01-26T19:55:59.597Z,102431.16
2023-01-26T19:58:28.086Z,102424.94
2023-01-26T20:01:00.458Z,102364.09
2023-01-26T20:03:28.449Z,102439.81
2023-01-26T20:05:57.430Z,102427.69
2023-01-26T20:08:25.791Z,102351.69
2023-01-26T20:10:53.771Z,102393.91
2023-01-26T20:13:22.996Z,102320.78
2023-01-26T20:15:50.931Z,102414.97
2023-01-26T20:18:18.912Z,102396.19
2023-01-26T20:20:50.385Z,102405.28
2023-01-26T20:23:18.932Z,102433.00
2023-01-26T20:25:47.195Z,102415.72
2023-01-26T20:28:15.398Z,102412.53
2023-01-26T20:30:45.302Z,102404.06
2023-01-26T20:33:13.399Z,102423.59
2023-01-26T20:35:43.502Z,102418.31
2023-01-26T20:38:11.578Z,102409.38
2023-01-26T20:40:40.140Z,102438.00
2023-01-26T20:43:08.222Z,102438.91
2023-01-26T20:45:36.269Z,102436.34
2023-01-26T20:48:05.927Z,102426.19
2023-01-26T20:50:40.223Z,102412.84
2023-01-26T20:53:08.386Z,102429.50
2023-01-26T20:55:36.733Z,102383.78
2023-01-26T20:58:06.766Z,102447.22
2023-01-26T21:00:36.113Z,102446.47
2023-01-26T21:03:05.691Z,102387.84
2023-01-26T21:05:33.667Z,102428.31
2023-01-26T21:08:01.703Z,102419.66
2023-01-26T21:10:29.625Z,102428.91
2023-01-26T21:12:57.524Z,102440.56
2023-01-26T21:15:25.484Z,102443.75
2023-01-26T21:17:53.362Z,102447.06
2023-01-26T21:20:22.619Z,102446.94
2023-01-26T21:22:50.585Z,102447.69
2023-01-26T21:25:18.481Z,102428.28
2023-01-26T21:27:46.286Z,102423.44
2023-01-26T21:30:15.066Z,102445.56
2023-01-26T21:32:42.991Z,102436.75
2023-01-26T21:35:11.684Z,102454.03
2023-01-26T21:37:40.998Z,102458.28
2023-01-26T21:40:10.628Z,102459.94
2023-01-26T21:42:38.758Z,102461.59
2023-01-26T21:45:25.520Z,102464.19
2023-01-26T21:48:07.306Z,102477.06
2023-01-26T21:50:49.258Z,102341.31
2023-01-26T21:53:18.913Z,102462.81
2023-01-26T21:55:47.667Z,102481.59
2023-01-26T21:58:29.467Z,102496.72
2023-01-26T22:01:06.484Z,102494.00
2023-01-26T22:03:34.603Z,102503.38
2023-01-26T22:06:03.134Z,102503.38
2023-01-26T22:08:33.011Z,102491.25
2023-01-26T22:11:00.998Z,102493.84
2023-01-26T22:13:29.318Z,102489.13
2023-01-26T22:16:04.200Z,102487.28
2023-01-26T22:18:32.497Z,102509.41
2023-01-26T22:21:00.483Z,102503.97
2023-01-26T22:23:33.395Z,102481.81
2023-01-26T22:26:05.178Z,102504.56
2023-01-26T22:28:33.456Z,102488.06
2023-01-26T22:31:03.305Z,102449.06
2023-01-26T22:33:31.657Z,102494.88
2023-01-26T22:36:04.427Z,102507.41
2023-01-26T22:38:34.555Z,102513.00
2023-01-26T22:41:03.139Z,102482.06
2023-01-26T22:43:32.201Z,102439.47
2023-01-26T22:46:03.809Z,102493.63
2023-01-26T22:48:31.852Z,102494.84
2023-01-26T22:51:06.727Z,102518.59
2023-01-26T22:53:36.058Z,102514.03
2023-01-26T22:56:04.052Z,102496.59
2023-01-26T22:58:35.146Z,102521.75
2023-01-26T23:01:08.566Z,102519.94
2023-01-26T23:03:36.859Z,102526.00
2023-01-26T23:06:06.345Z,102510.97
2023-01-26T23:08:35.646Z,102521.88
2023-01-26T23:11:05.372Z,102523.53
2023-01-26T23:13:33.697Z,102514.00
2023-01-26T23:16:01.588Z,102497.31
2023-01-26T23:18:29.966Z,102516.41
2023-01-26T23:20:58.646Z,102529.28
2023-01-26T23:23:26.702Z,102537.75
2023-01-26T23:25:56.673Z,102536.84
2023-01-26T23:28:26.131Z,102542.56
2023-01-26T23:30:55.511Z,102545.00
2023-01-26T23:33:25.061Z,102525.88
2023-01-26T23:35:53.289Z,102542.41
2023-01-26T23:38:22.321Z,102549.22
2023-01-26T23:40:51.112Z,102553.28
2023-01-26T23:43:20.820Z,102545.69
2023-01-26T23:45:50.628Z,102554.63
2023-01-26T23:48:19.273Z,102505.44
2023-01-26T23:50:47.560Z,102569.00
2023-01-26T23:53:15.776Z,102532.47
2023-01-26T23:55:45.125Z,102563.84
2023-01-26T23:58:13.184Z,102537.63
